Time;durP1;ratioP1;P1;durP2;ratioP2;P2;SDS_P1;SDS_P2;PMS_P1;PMS_P2;Temp;Humidity;BMP_temperature;BMP_pressure;BME280_temperature;BME280_humidity;BME280_pressure;Samples;Min_cycle;Max_cycle;Signal;HPM_P1;HPM_P2
2024/02/16 00:02:20;;;;;;;20.13;13.07;;;;;;;8.37;73.34;100989.94;5091897;28;20256;-63
2024/02/16 00:04:50;;;;;;;18.83;11.83;;;;;;;8.37;72.87;100995.97;5091443;28;20265;-59
2024/02/16 00:07:21;;;;;;;18.43;12.00;;;;;;;8.37;73.51;101000.22;5084461;28;20210;-65
2024/02/16 00:09:50;;;;;;;15.53;11.27;;;;;;;8.35;73.02;100999.31;5091814;28;20200;-58
2024/02/16 00:12:21;;;;;;;18.93;11.50;;;;;;;8.34;73.30;100995.03;5090013;28;20600;-62
2024/02/16 00:14:49;;;;;;;17.80;11.40;;;;;;;8.31;73.03;100997.56;5086205;28;20668;-57
2024/02/16 00:17:18;;;;;;;18.47;11.70;;;;;;;8.29;73.39;100994.13;5091140;28;20616;-58
2024/02/16 00:19:46;;;;;;;17.37;11.13;;;;;;;8.28;72.76;100995.78;5091579;28;20214;-59
2024/02/16 00:22:14;;;;;;;15.83;10.77;;;;;;;8.27;72.88;100988.09;5087511;28;20669;-62
2024/02/16 00:24:43;;;;;;;15.40;10.77;;;;;;;8.27;73.32;100990.66;5090633;28;20208;-59
2024/02/16 00:27:11;;;;;;;17.97;10.40;;;;;;;8.30;73.09;100995.84;5087237;28;20863;-58
2024/02/16 00:29:39;;;;;;;16.10;10.20;;;;;;;8.29;73.57;100992.41;5086402;28;20209;-61
2024/02/16 00:32:08;;;;;;;15.50;10.17;;;;;;;8.32;72.77;100991.56;5084412;28;20227;-60
2024/02/16 00:34:39;;;;;;;13.67;10.00;;;;;;;8.32;72.22;100994.13;5079205;28;20686;-62
2024/02/16 00:37:09;;;;;;;13.97;9.40;;;;;;;8.33;72.68;100993.31;5090430;28;20206;-59
2024/02/16 00:39:37;;;;;;;13.60;9.13;;;;;;;8.32;72.57;100987.31;5075043;28;20292;-60
2024/02/16 00:42:07;;;;;;;12.83;9.57;;;;;;;8.30;72.79;100986.44;5082464;28;20556;-59
2024/02/16 00:44:35;;;;;;;13.13;9.43;;;;;;;8.30;73.00;100989.00;5091057;28;20569;-60
2024/02/16 00:47:05;;;;;;;14.33;9.80;;;;;;;8.30;72.79;100980.44;5080723;28;20665;-61
2024/02/16 00:49:39;;;;;;;14.87;9.47;;;;;;;8.29;72.59;100983.84;5090783;28;20196;-61
2024/02/16 00:52:11;;;;;;;13.40;8.37;;;;;;;8.25;71.78;100972.69;5089880;28;20332;-59
2024/02/16 00:54:39;;;;;;;13.30;9.17;;;;;;;8.19;72.39;100970.88;5086843;28;20208;-60
2024/02/16 00:57:07;;;;;;;13.20;8.87;;;;;;;8.15;72.24;100974.25;5087788;28;20200;-62
2024/02/16 00:59:35;;;;;;;14.17;8.40;;;;;;;8.09;72.01;100973.28;5088529;28;20557;-59
2024/02/16 01:02:03;;;;;;;12.00;8.63;;;;;;;8.06;72.77;100963.84;5088462;28;20196;-59
2024/02/16 01:04:31;;;;;;;14.27;8.33;;;;;;;8.03;72.12;100961.25;5091097;28;20204;-61
2024/02/16 01:07:00;;;;;;;12.30;8.63;;;;;;;8.01;72.87;100960.38;5095040;28;20199;-59
2024/02/16 01:09:29;;;;;;;12.10;8.17;;;;;;;8.00;72.86;100961.22;5092221;28;20278;-60
2024/02/16 01:11:57;;;;;;;13.80;8.53;;;;;;;7.97;72.64;100956.91;5092636;28;20259;-59
2024/02/16 01:14:25;;;;;;;13.47;8.60;;;;;;;7.95;72.68;100962.84;5090085;28;20232;-60
2024/02/16 01:16:53;;;;;;;14.33;8.27;;;;;;;7.91;72.75;100955.94;5096889;28;20246;-62
2024/02/16 01:19:21;;;;;;;10.37;7.97;;;;;;;7.88;72.11;100951.66;5095714;28;20197;-60
2024/02/16 01:21:52;;;;;;;10.93;7.17;;;;;;;7.88;72.11;100943.06;5095887;28;20211;-59
2024/02/16 01:24:23;;;;;;;12.10;7.80;;;;;;;7.85;71.99;100943.91;5094743;28;20649;-60
2024/02/16 01:26:51;;;;;;;10.93;7.47;;;;;;;7.81;72.52;100942.13;5098294;28;20212;-61
2024/02/16 01:29:19;;;;;;;11.70;7.17;;;;;;;7.78;72.57;100946.38;5101904;28;20208;-58
2024/02/16 01:31:47;;;;;;;11.23;7.47;;;;;;;7.75;72.48;100947.16;5090936;28;20208;-58
2024/02/16 01:34:15;;;;;;;10.40;6.77;;;;;;;7.71;72.41;100941.13;5094917;28;20667;-58
2024/02/16 01:36:43;;;;;;;12.30;7.57;;;;;;;7.70;73.34;100936.84;5087473;28;20200;-61
2024/02/16 01:39:11;;;;;;;13.80;7.60;;;;;;;7.68;72.83;100940.22;5092514;28;20908;-60
2024/02/16 01:41:41;;;;;;;11.27;7.73;;;;;;;7.67;72.82;100947.06;5097890;28;20204;-63
2024/02/16 01:44:09;;;;;;;9.87;6.77;;;;;;;7.66;72.78;100940.22;5096839;28;20327;-58
2024/02/16 01:46:37;;;;;;;13.53;7.50;;;;;;;7.66;72.88;100942.78;5094358;28;20224;-58
2024/02/16 01:49:07;;;;;;;10.40;6.93;;;;;;;7.64;73.26;100934.19;5094964;28;20242;-59
2024/02/16 01:51:36;;;;;;;11.20;7.00;;;;;;;7.63;72.39;100935.03;5093017;28;20685;-61
2024/02/16 01:54:05;;;;;;;9.30;6.40;;;;;;;7.62;73.51;100938.44;5087666;28;20224;-60
2024/02/16 01:56:34;;;;;;;11.50;6.90;;;;;;;7.61;73.34;100936.69;5090760;28;20238;-62
2024/02/16 01:59:03;;;;;;;12.93;7.87;;;;;;;7.56;72.89;100933.22;5097618;28;20201;-58
2024/02/16 02:01:31;;;;;;;12.47;7.67;;;;;;;7.53;72.22;100934.88;5088744;28;20209;-59
2024/02/16 02:03:59;;;;;;;9.93;7.33;;;;;;;7.50;73.87;100939.09;5091981;28;20271;-59
2024/02/16 02:06:27;;;;;;;11.20;7.30;;;;;;;7.50;72.41;100949.38;5093710;28;20626;-59
2024/02/16 02:08:56;;;;;;;12.07;7.37;;;;;;;7.49;73.12;100947.66;5094257;28;20205;-60
2024/02/16 02:11:24;;;;;;;9.43;6.80;;;;;;;7.49;73.06;100949.34;5092757;28;20237;-61
2024/02/16 02:13:52;;;;;;;12.13;7.27;;;;;;;7.48;72.88;100945.06;5090562;28;20291;-60
2024/02/16 02:16:23;;;;;;;10.87;7.23;;;;;;;7.46;72.54;100942.47;5092319;28;20208;-58
2024/02/16 02:18:51;;;;;;;12.10;7.57;;;;;;;7.45;71.81;100945.88;5083873;28;20297;-60
2024/02/16 02:21:19;;;;;;;12.37;7.53;;;;;;;7.42;73.17;100939.84;5095142;28;20580;-62
2024/02/16 02:23:48;;;;;;;10.07;6.73;;;;;;;7.41;72.94;100933.00;5092722;28;20703;-59
2024/02/16 02:26:17;;;;;;;10.47;7.37;;;;;;;7.40;72.67;100933.81;5092902;28;20553;-60
2024/02/16 02:28:45;;;;;;;10.17;6.90;;;;;;;7.41;72.84;100931.28;5092601;28;20204;-59
2024/02/16 02:31:14;;;;;;;8.73;6.43;;;;;;;7.41;72.12;100936.41;5088608;28;20278;-59
2024/02/16 02:33:43;;;;;;;11.53;7.83;;;;;;;7.40;72.25;100924.44;5093204;28;20196;-59
2024/02/16 02:36:11;;;;;;;9.73;6.57;;;;;;;7.39;71.96;100932.09;5084849;28;20533;-65
2024/02/16 02:38:39;;;;;;;11.57;7.37;;;;;;;7.37;71.61;100931.22;5090834;28;20676;-60
2024/02/16 02:41:09;;;;;;;11.87;7.13;;;;;;;7.34;71.34;100920.91;5087956;28;20204;-58
2024/02/16 02:43:37;;;;;;;10.93;7.23;;;;;;;7.32;71.85;100917.44;5092620;28;20204;-59
2024/02/16 02:46:05;;;;;;;11.47;7.03;;;;;;;7.34;72.43;100924.34;5092570;28;20801;-59
2024/02/16 02:48:33;;;;;;;10.80;6.63;;;;;;;7.33;71.65;100922.63;5086526;28;20204;-60
2024/02/16 02:51:01;;;;;;;9.63;6.67;;;;;;;7.31;70.87;100923.41;5095969;28;20205;-58
2024/02/16 02:53:29;;;;;;;12.73;6.90;;;;;;;7.32;71.36;100917.44;5091648;28;20224;-59
2024/02/16 02:55:57;;;;;;;10.30;7.10;;;;;;;7.31;71.20;100923.41;5091803;28;20292;-60
2024/02/16 02:58:27;;;;;;;13.90;6.63;;;;;;;7.28;72.15;100919.09;5085265;28;20204;-58
2024/02/16 03:00:55;;;;;;;11.10;6.93;;;;;;;7.28;71.83;100926.78;5092715;28;20201;-59
2024/02/16 03:03:23;;;;;;;9.33;6.23;;;;;;;7.26;71.30;100931.91;5091904;28;20211;-57
2024/02/16 03:05:52;;;;;;;12.67;6.63;;;;;;;7.25;71.18;100925.06;5088385;28;20240;-60
2024/02/16 03:08:20;;;;;;;11.03;6.10;;;;;;;7.24;71.34;100928.44;5097658;28;20765;-59
2024/02/16 03:10:48;;;;;;;9.93;6.53;;;;;;;7.23;70.98;100929.28;5092522;28;20656;-63
2024/02/16 03:13:18;;;;;;;9.00;6.33;;;;;;;7.23;71.74;100931.00;5092344;28;20240;-58
2024/02/16 03:15:47;;;;;;;10.63;6.33;;;;;;;7.24;70.92;100932.72;5084776;28;20336;-59
2024/02/16 03:18:15;;;;;;;10.97;6.63;;;;;;;7.23;70.86;100936.13;5089700;28;20208;-59
2024/02/16 03:20:47;;;;;;;9.10;6.60;;;;;;;7.23;70.45;100936.97;5092372;28;20296;-59
2024/02/16 03:23:16;;;;;;;8.67;6.40;;;;;;;7.21;71.26;100941.19;5089863;28;20638;-59
2024/02/16 03:25:44;;;;;;;9.73;5.93;;;;;;;7.21;70.56;100937.78;5086375;28;20599;-59
2024/02/16 03:28:13;;;;;;;11.10;6.87;;;;;;;7.20;70.48;100934.34;5090000;28;20220;-60
2024/02/16 03:30:42;;;;;;;9.27;6.67;;;;;;;7.18;69.80;100930.94;5092266;28;20720;-60
2024/02/16 03:33:11;;;;;;;9.30;6.33;;;;;;;7.16;69.59;100931.72;5090121;28;20208;-61
2024/02/16 03:35:40;;;;;;;8.53;6.30;;;;;;;7.12;69.87;100935.94;5091371;28;20210;-59
2024/02/16 03:38:08;;;;;;;8.43;6.37;;;;;;;7.10;69.31;100929.91;5092272;28;20665;-60
2024/02/16 03:40:36;;;;;;;12.67;7.23;;;;;;;7.12;69.89;100928.25;5091405;28;20261;-60
2024/02/16 03:43:05;;;;;;;8.03;6.43;;;;;;;7.13;70.13;100929.13;5089226;28;20209;-57
2024/02/16 03:45:33;;;;;;;10.93;6.63;;;;;;;7.14;70.56;100931.72;5090941;28;20579;-59
2024/02/16 03:48:01;;;;;;;11.40;6.30;;;;;;;7.15;69.22;100933.44;5087581;28;20313;-59
2024/02/16 03:50:31;;;;;;;11.60;7.30;;;;;;;7.11;69.78;100939.34;5090117;28;20204;-59
2024/02/16 03:52:59;;;;;;;13.07;7.17;;;;;;;7.08;69.31;100929.03;5083165;28;20209;-62
2024/02/16 03:55:27;;;;;;;9.33;6.60;;;;;;;7.05;69.35;100926.41;5091760;28;20689;-59
2024/02/16 03:57:55;;;;;;;8.03;6.43;;;;;;;7.04;70.01;100929.81;5091700;28;20204;-63
2024/02/16 04:00:23;;;;;;;8.97;6.83;;;;;;;7.05;70.04;100930.69;5089212;28;20205;-58
2024/02/16 04:02:51;;;;;;;9.37;6.57;;;;;;;7.05;69.12;100930.69;5092368;28;20280;-65
2024/02/16 04:05:19;;;;;;;9.80;6.27;;;;;;;7.04;69.83;100932.41;5093640;28;20227;-66
2024/02/16 04:07:49;;;;;;;12.20;7.37;;;;;;;7.00;69.27;100933.19;5091790;28;20575;-59
2024/02/16 04:10:17;;;;;;;10.20;6.90;;;;;;;6.99;69.06;100931.44;5086802;28;20207;-64
2024/02/16 04:12:44;;;;;;;9.23;6.40;;;;;;;6.96;69.06;100936.53;5089448;28;20242;-58
2024/02/16 04:15:14;;;;;;;12.83;6.37;;;;;;;6.95;68.63;100932.22;5091519;28;20649;-58
2024/02/16 04:17:42;;;;;;;15.83;7.37;;;;;;;6.90;69.31;100937.28;5091687;28;20200;-60
2024/02/16 04:20:11;;;;;;;10.57;6.93;;;;;;;6.89;69.08;100935.56;5084415;28;20705;-58
2024/02/16 04:22:40;;;;;;;9.57;6.57;;;;;;;6.88;69.22;100938.06;5079943;28;20250;-62
2024/02/16 04:25:10;;;;;;;12.60;7.20;;;;;;;6.89;68.66;100937.25;5090882;28;20204;-59
2024/02/16 04:27:38;;;;;;;10.60;6.90;;;;;;;6.86;68.97;100932.06;5083811;28;20240;-63
2024/02/16 04:30:07;;;;;;;9.10;7.10;;;;;;;6.86;68.83;100938.06;5085415;28;20232;-59
2024/02/16 04:32:36;;;;;;;11.13;6.63;;;;;;;6.83;69.26;100934.56;5090893;28;20204;-58
2024/02/16 04:35:05;;;;;;;9.47;6.40;;;;;;;6.83;68.84;100935.44;5091420;28;20205;-58
2024/02/16 04:37:33;;;;;;;11.50;7.33;;;;;;;6.81;68.39;100936.22;5085457;28;20204;-60
2024/02/16 04:40:01;;;;;;;10.63;7.33;;;;;;;6.80;68.70;100929.38;5090554;28;20627;-59
2024/02/16 04:42:31;;;;;;;9.83;6.60;;;;;;;6.76;69.15;100929.31;5090932;28;20726;-59
2024/02/16 04:44:59;;;;;;;12.93;7.30;;;;;;;6.75;68.84;100939.56;5085517;28;20215;-59
2024/02/16 04:47:31;;;;;;;11.73;7.47;;;;;;;6.75;68.26;100930.16;5090167;28;20204;-61
2024/02/16 04:49:59;;;;;;;9.50;6.17;;;;;;;6.75;68.51;100930.16;5087219;28;20291;-60
2024/02/16 04:52:27;;;;;;;11.37;6.80;;;;;;;6.76;68.55;100928.47;5089276;28;20200;-60
2024/02/16 04:54:58;;;;;;;9.80;6.70;;;;;;;6.76;68.74;100924.22;5087608;28;20246;-59
2024/02/16 04:57:25;;;;;;;10.87;6.73;;;;;;;6.78;68.04;100934.50;5090949;28;20200;-60
2024/02/16 04:59:55;;;;;;;12.33;7.17;;;;;;;6.77;68.20;100925.97;5090675;28;20219;-61
2024/02/16 05:02:23;;;;;;;15.13;6.70;;;;;;;6.74;68.92;100925.03;5083931;28;20208;-58
2024/02/16 05:04:51;;;;;;;13.00;7.57;;;;;;;6.72;68.74;100926.69;5090602;28;20268;-61
2024/02/16 05:07:19;;;;;;;11.70;7.00;;;;;;;6.71;68.44;100930.97;5090256;28;20686;-59
2024/02/16 05:09:47;;;;;;;8.80;6.63;;;;;;;6.71;68.45;100930.97;5090484;28;20200;-59
2024/02/16 05:12:18;;;;;;;12.87;7.10;;;;;;;6.71;68.63;100925.84;5090318;28;20244;-59
2024/02/16 05:14:49;;;;;;;13.00;7.40;;;;;;;6.70;68.67;100925.78;5090676;28;20213;-59
2024/02/16 05:17:19;;;;;;;8.90;6.70;;;;;;;6.69;68.50;100932.59;5080940;28;20240;-59
2024/02/16 05:19:47;;;;;;;10.90;6.73;;;;;;;6.66;68.47;100932.56;5082406;28;20201;-59
2024/02/16 05:22:18;;;;;;;10.07;6.60;;;;;;;6.66;68.81;100926.56;5086403;28;20211;-59
2024/02/16 05:24:46;;;;;;;12.20;7.00;;;;;;;6.67;69.00;100926.63;5092740;28;20212;-59
2024/02/16 05:27:14;;;;;;;12.67;6.50;;;;;;;6.65;68.73;100920.59;5090482;28;20196;-61
2024/02/16 05:29:42;;;;;;;11.53;6.77;;;;;;;6.65;68.06;100919.72;5090664;28;20212;-59
2024/02/16 05:32:10;;;;;;;12.10;7.33;;;;;;;6.62;69.12;100925.66;5089503;28;20203;-59
2024/02/16 05:34:40;;;;;;;9.83;7.13;;;;;;;6.61;69.13;100923.94;5077258;28;20232;-59
2024/02/16 05:37:12;;;;;;;10.13;6.10;;;;;;;6.57;68.59;100917.03;5090571;28;20679;-60
2024/02/16 05:39:53;;;;;;;9.07;6.80;;;;;;;6.56;68.63;100920.44;5089520;28;20197;-60
2024/02/16 05:42:22;;;;;;;9.97;6.90;;;;;;;6.53;69.27;100926.34;5091424;28;20262;-60
2024/02/16 05:44:51;;;;;;;13.23;7.00;;;;;;;6.51;68.78;100929.69;5090042;28;20200;-60
2024/02/16 05:47:19;;;;;;;14.63;7.43;;;;;;;6.53;69.65;100936.59;5088538;28;20712;-58
2024/02/16 05:49:49;;;;;;;10.03;6.90;;;;;;;6.53;68.61;100941.72;5089822;28;20649;-60
2024/02/16 05:52:20;;;;;;;10.57;7.23;;;;;;;6.52;69.23;100944.25;5086878;28;20581;-58
2024/02/16 05:54:49;;;;;;;10.97;7.27;;;;;;;6.53;69.70;100945.97;5087745;28;20223;-58
2024/02/16 05:57:18;;;;;;;9.70;6.70;;;;;;;6.53;69.26;100941.72;5086913;28;20291;-60
2024/02/16 05:59:46;;;;;;;13.20;7.67;;;;;;;6.52;69.16;100939.13;5095148;28;20562;-63
2024/02/16 06:02:16;;;;;;;17.73;7.17;;;;;;;6.56;68.90;100940.06;5089782;28;20283;-62
2024/02/16 06:04:44;;;;;;;9.83;7.10;;;;;;;6.55;68.92;100951.97;5101160;28;20193;-58
2024/02/16 06:07:14;;;;;;;10.17;7.50;;;;;;;6.54;69.26;100945.13;5092514;28;20219;-58
2024/02/16 06:09:42;;;;;;;10.30;7.20;;;;;;;6.56;69.37;100946.03;5096745;28;20243;-59
2024/02/16 06:12:12;;;;;;;12.90;7.90;;;;;;;6.56;69.65;100946.03;5081244;28;20722;-58
2024/02/16 06:14:41;;;;;;;11.83;7.30;;;;;;;6.56;68.88;100953.72;5094507;28;20217;-59
2024/02/16 06:17:09;;;;;;;11.63;7.40;;;;;;;6.54;69.36;100955.38;5082007;28;20237;-57
2024/02/16 06:19:37;;;;;;;12.27;7.10;;;;;;;6.57;69.64;100952.88;5085204;28;20244;-60
2024/02/16 06:22:05;;;;;;;13.13;7.37;;;;;;;6.58;69.54;100948.63;5097090;28;20209;-59
2024/02/16 06:24:35;;;;;;;12.97;7.43;;;;;;;6.60;69.88;100968.31;5091412;28;20197;-62
2024/02/16 06:27:03;;;;;;;11.60;7.77;;;;;;;6.64;69.70;100962.41;5086327;28;20212;-59
2024/02/16 06:29:32;;;;;;;12.40;8.10;;;;;;;6.66;69.35;100963.28;5091041;28;20654;-58
2024/02/16 06:32:01;;;;;;;11.07;7.23;;;;;;;6.70;69.31;100966.75;5087922;28;20200;-58
2024/02/16 06:34:30;;;;;;;14.07;7.87;;;;;;;6.73;68.76;100970.25;5090412;28;20342;-59
2024/02/16 06:36:59;;;;;;;11.47;7.67;;;;;;;6.77;69.36;100972.06;5092598;28;20203;-59
2024/02/16 06:39:27;;;;;;;12.10;8.07;;;;;;;6.77;68.45;100972.06;5094027;28;20209;-59
2024/02/16 06:41:57;;;;;;;13.90;8.13;;;;;;;6.80;68.82;100983.19;5090265;28;20657;-59
2024/02/16 06:44:25;;;;;;;13.57;8.47;;;;;;;6.91;69.30;100979.13;5091334;28;20660;-59
2024/02/16 06:46:53;;;;;;;14.90;8.47;;;;;;;7.02;69.04;100987.84;5094744;28;20283;-59
2024/02/16 06:49:21;;;;;;;11.40;7.93;;;;;;;7.15;68.37;100988.97;5083300;28;20649;-59
2024/02/16 06:51:49;;;;;;;14.53;8.57;;;;;;;7.26;67.31;100987.44;5099618;28;20288;-58
2024/02/16 06:54:17;;;;;;;12.87;7.87;;;;;;;7.40;67.70;100990.22;5087406;28;20221;-59
2024/02/16 06:56:45;;;;;;;13.33;8.07;;;;;;;7.51;67.97;100983.56;5092653;28;20653;-59
2024/02/16 06:59:14;;;;;;;13.83;7.87;;;;;;;7.67;66.47;100982.97;5086255;28;20199;-58
2024/02/16 07:01:42;;;;;;;13.43;8.67;;;;;;;7.76;65.38;100979.69;5085446;28;20204;-59
2024/02/16 07:04:11;;;;;;;15.70;8.70;;;;;;;7.78;65.23;100978.00;5089375;28;20220;-61
2024/02/16 07:06:39;;;;;;;12.77;8.17;;;;;;;7.79;65.44;100986.56;5083219;28;20209;-56
2024/02/16 07:09:07;;;;;;;12.80;7.90;;;;;;;7.78;65.16;100979.72;5091829;28;20243;-58
2024/02/16 07:11:35;;;;;;;18.67;8.57;;;;;;;7.76;64.72;100984.81;5089561;28;20231;-63
2024/02/16 07:14:06;;;;;;;11.83;8.07;;;;;;;7.72;65.18;100989.03;5091093;28;20217;-63
2024/02/16 07:16:36;;;;;;;14.07;8.93;;;;;;;7.65;65.09;100982.06;5090761;28;20295;-59
2024/02/16 07:19:05;;;;;;;11.43;8.50;;;;;;;7.60;64.56;100988.00;5091599;28;20205;-58
2024/02/16 07:21:33;;;;;;;13.13;8.83;;;;;;;7.54;65.10;100983.59;5092811;28;20599;-58
2024/02/16 07:24:01;;;;;;;13.67;8.37;;;;;;;7.53;65.04;100984.47;5088626;28;20235;-59
2024/02/16 07:26:29;;;;;;;22.90;9.57;;;;;;;7.53;65.21;100992.16;5088865;28;20212;-57
2024/02/16 07:28:57;;;;;;;15.20;8.90;;;;;;;7.50;65.10;100981.84;5090919;28;20220;-60
2024/02/16 07:31:25;;;;;;;17.43;8.90;;;;;;;7.52;65.26;100981.88;5084110;28;20215;-58
2024/02/16 07:33:54;;;;;;;12.83;8.70;;;;;;;7.54;65.06;100983.59;5081247;28;20198;-57
2024/02/16 07:36:23;;;;;;;14.97;8.70;;;;;;;7.54;65.23;100988.75;5086348;28;20243;-57
2024/02/16 07:38:51;;;;;;;13.40;9.10;;;;;;;7.56;65.15;100992.22;5087847;28;20295;-57
2024/02/16 07:41:19;;;;;;;13.10;8.60;;;;;;;7.62;64.45;100989.75;5089935;28;20200;-58
2024/02/16 07:43:47;;;;;;;13.50;8.07;;;;;;;7.66;64.80;100993.22;5083602;28;20665;-58
2024/02/16 07:46:15;;;;;;;15.27;8.70;;;;;;;7.77;64.71;101001.06;5090840;28;20196;-57
2024/02/16 07:48:45;;;;;;;15.27;9.10;;;;;;;7.79;64.49;101000.25;5086394;28;20205;-61
2024/02/16 07:51:15;;;;;;;14.97;8.77;;;;;;;7.86;64.25;101003.78;5086849;28;20270;-57
2024/02/16 07:53:46;;;;;;;14.87;8.40;;;;;;;7.94;64.98;101004.75;5081542;28;20539;-56
2024/02/16 07:56:15;;;;;;;13.00;8.70;;;;;;;7.99;64.34;101003.97;5089315;28;20627;-57
2024/02/16 07:58:44;;;;;;;12.20;8.53;;;;;;;8.05;63.58;100992.94;5087914;28;20201;-56
2024/02/16 08:01:15;;;;;;;14.43;9.27;;;;;;;8.10;64.39;100995.56;5085306;28;20208;-58
2024/02/16 08:03:44;;;;;;;15.17;8.67;;;;;;;8.14;64.64;100997.34;5082737;28;20237;-57
2024/02/16 08:06:12;;;;;;;14.63;8.93;;;;;;;8.16;63.57;101000.78;5085897;28;20228;-61
2024/02/16 08:08:42;;;;;;;13.87;8.70;;;;;;;8.13;64.09;101004.16;5087294;28;20287;-59
2024/02/16 08:11:09;;;;;;;14.03;8.57;;;;;;;8.14;64.14;100998.19;5090542;28;20292;-60
2024/02/16 08:13:38;;;;;;;14.60;8.50;;;;;;;8.18;63.73;100994.84;5091474;28;20236;-58
2024/02/16 08:16:07;;;;;;;14.03;8.53;;;;;;;8.25;63.88;100998.34;5084454;28;20626;-62
2024/02/16 08:18:35;;;;;;;16.70;9.37;;;;;;;8.33;63.52;100993.31;5089201;28;20294;-57
2024/02/16 08:21:03;;;;;;;12.63;8.33;;;;;;;8.40;63.23;100997.72;5085897;28;20204;-61
2024/02/16 08:23:31;;;;;;;15.57;9.10;;;;;;;8.45;62.52;100998.63;5083037;28;20200;-59
2024/02/16 08:26:01;;;;;;;16.17;8.93;;;;;;;8.45;62.30;100993.50;5086065;28;20228;-56
2024/02/16 08:28:29;;;;;;;13.23;8.97;;;;;;;8.46;62.40;100990.94;5087376;28;20200;-58
2024/02/16 08:30:57;;;;;;;16.43;9.50;;;;;;;8.49;62.71;100984.13;5085282;28;20213;-58
2024/02/16 08:33:26;;;;;;;15.67;9.40;;;;;;;8.50;62.27;100985.84;5091795;28;20215;-59
2024/02/16 08:35:54;;;;;;;14.93;8.43;;;;;;;8.48;61.92;100978.13;5088881;28;20220;-59
2024/02/16 08:38:22;;;;;;;15.90;8.87;;;;;;;8.46;62.05;100978.09;5085231;28;20205;-64
2024/02/16 08:40:55;;;;;;;12.63;8.97;;;;;;;8.49;62.35;100978.97;5088652;28;20311;-57
2024/02/16 08:43:25;;;;;;;15.40;8.53;;;;;;;8.49;61.60;100968.72;5089947;28;20200;-58
2024/02/16 08:45:53;;;;;;;13.33;8.80;;;;;;;8.47;61.86;100966.13;5089604;28;20208;-62
2024/02/16 08:48:21;;;;;;;13.57;8.97;;;;;;;8.49;62.15;100974.69;5090410;28;20230;-62
2024/02/16 08:50:49;;;;;;;15.33;8.20;;;;;;;8.49;61.33;100982.41;5090063;28;20295;-58
2024/02/16 08:53:17;;;;;;;14.80;8.30;;;;;;;8.51;61.72;100983.31;5090175;28;20208;-61
2024/02/16 08:55:48;;;;;;;13.13;8.87;;;;;;;8.53;61.90;100985.88;5087642;28;20580;-66
2024/02/16 08:58:16;;;;;;;13.47;8.43;;;;;;;8.54;61.71;100980.75;5084374;28;20236;-66
2024/02/16 09:00:48;;;;;;;13.77;7.83;;;;;;;8.59;60.97;100980.81;5091065;28;20197;-64
2024/02/16 09:03:17;;;;;;;12.53;7.80;;;;;;;8.63;61.50;100983.44;5088923;28;20299;-63
2024/02/16 09:05:45;;;;;;;12.07;7.83;;;;;;;8.65;61.49;100979.19;5082741;28;20297;-63
2024/02/16 09:08:14;;;;;;;13.90;8.90;;;;;;;8.69;60.90;100975.81;5092208;28;20298;-61
2024/02/16 09:10:42;;;;;;;11.63;8.17;;;;;;;8.71;60.90;100981.81;5090526;28;20207;-64
2024/02/16 09:13:10;;;;;;;15.00;8.90;;;;;;;8.74;60.60;100975.00;5091029;28;20224;-63
2024/02/16 09:15:39;;;;;;;11.50;8.50;;;;;;;8.74;60.81;100967.28;5094880;28;20621;-65
2024/02/16 09:18:08;;;;;;;15.77;8.20;;;;;;;8.82;60.72;100973.34;5088275;28;20201;-62
2024/02/16 09:20:36;;;;;;;11.50;8.50;;;;;;;8.87;60.25;100976.81;5091825;28;20205;-62
2024/02/16 09:23:04;;;;;;;12.27;7.77;;;;;;;8.89;60.32;100973.44;5088723;28;20220;-62
2024/02/16 09:25:32;;;;;;;12.03;8.60;;;;;;;8.92;61.16;100970.03;5084804;28;20643;-63
2024/02/16 09:28:00;;;;;;;11.83;8.07;;;;;;;8.97;60.79;100973.50;5089729;28;20254;-63
2024/02/16 09:30:28;;;;;;;13.23;8.50;;;;;;;9.00;60.80;100967.53;5087537;28;20696;-62
2024/02/16 09:32:56;;;;;;;14.70;9.03;;;;;;;9.03;60.63;100968.44;5073004;28;20304;-64
2024/02/16 09:35:27;;;;;;;15.03;9.03;;;;;;;9.08;61.13;100963.34;5071003;28;20220;-67
2024/02/16 09:37:55;;;;;;;14.53;8.70;;;;;;;9.13;60.82;100970.25;5085063;28;20205;-63
2024/02/16 09:40:24;;;;;;;15.10;9.10;;;;;;;9.16;61.03;100962.53;5092099;28;20630;-65
2024/02/16 09:42:52;;;;;;;15.07;9.37;;;;;;;9.21;60.74;100961.75;5094902;28;20204;-65
2024/02/16 09:45:20;;;;;;;16.27;9.23;;;;;;;9.24;60.79;100954.88;5089078;28;20714;-64
2024/02/16 09:47:50;;;;;;;14.73;8.73;;;;;;;9.26;60.88;100953.22;5109385;28;20277;-64
2024/02/16 09:50:31;;;;;;;13.33;8.93;;;;;;;9.26;60.85;100948.06;5095451;28;20262;-63
2024/02/16 09:53:00;;;;;;;12.73;8.20;;;;;;;9.29;60.53;100940.38;5094162;28;20254;-62
2024/02/16 09:55:33;;;;;;;12.13;8.23;;;;;;;9.31;61.00;100943.81;5090096;28;20288;-63
2024/02/16 09:58:01;;;;;;;16.83;9.10;;;;;;;9.34;61.10;100951.56;5088359;28;20258;-63
2024/02/16 10:00:29;;;;;;;14.03;8.80;;;;;;;9.34;60.99;100948.13;5094814;28;20294;-63
2024/02/16 10:02:57;;;;;;;17.80;8.40;;;;;;;9.35;61.28;100945.59;5094823;28;20672;-64
2024/02/16 10:05:25;;;;;;;14.13;8.20;;;;;;;9.36;61.36;100947.28;5094411;28;20261;-62
2024/02/16 10:07:54;;;;;;;14.00;9.20;;;;;;;9.38;61.28;100952.44;5089887;28;20262;-62
2024/02/16 10:10:23;;;;;;;15.67;8.30;;;;;;;9.39;60.92;100944.75;5094249;28;20250;-62
2024/02/16 10:12:51;;;;;;;14.43;8.50;;;;;;;9.42;60.95;100941.31;5090984;28;20795;-61
2024/02/16 10:15:22;;;;;;;13.17;8.40;;;;;;;9.48;60.99;100940.53;5090270;28;20205;-65
2024/02/16 10:18:00;;;;;;;16.17;8.93;;;;;;;9.54;60.97;100940.56;5093206;28;20610;-64
2024/02/16 10:20:28;;;;;;;14.40;8.23;;;;;;;9.57;60.65;100930.28;5086192;28;20223;-63
2024/02/16 10:23:08;;;;;;;13.20;8.40;;;;;;;9.61;60.82;100924.28;5093300;28;20213;-63
2024/02/16 10:25:38;;;;;;;14.07;8.77;;;;;;;9.65;60.55;100928.66;5081346;28;20614;-65
2024/02/16 10:28:07;;;;;;;12.77;8.87;;;;;;;9.66;60.03;100918.34;5093982;28;20205;-64
2024/02/16 10:30:38;;;;;;;12.90;8.50;;;;;;;9.68;59.54;100919.22;5093871;28;20208;-64
2024/02/16 10:33:06;;;;;;;12.83;8.43;;;;;;;9.67;59.85;100916.63;5093563;28;20211;-62
2024/02/16 10:35:36;;;;;;;13.43;8.30;;;;;;;9.70;59.67;100913.22;5090760;28;20574;-63
2024/02/16 10:38:10;;;;;;;13.77;8.10;;;;;;;9.71;60.15;100912.38;5087611;28;20220;-66
2024/02/16 10:40:40;;;;;;;13.33;8.10;;;;;;;9.73;59.98;100910.69;5090242;28;20203;-66
2024/02/16 10:43:09;;;;;;;15.43;8.27;;;;;;;9.77;59.95;100900.41;5082952;28;20205;-62
2024/02/16 10:45:39;;;;;;;12.37;8.10;;;;;;;9.78;59.63;100890.97;5091828;28;20282;-62
2024/02/16 10:48:08;;;;;;;11.43;7.63;;;;;;;9.85;59.47;100901.28;5093445;28;20604;-67
2024/02/16 10:50:38;;;;;;;17.83;8.57;;;;;;;9.88;59.29;100895.31;5091920;28;20277;-63
2024/02/16 10:53:15;;;;;;;13.70;8.53;;;;;;;9.91;59.51;100880.75;5087641;28;20232;-63
2024/02/16 10:55:44;;;;;;;16.07;8.90;;;;;;;9.94;59.48;100882.44;5088476;28;20948;-62
2024/02/16 10:58:13;;;;;;;17.37;9.30;;;;;;;9.98;59.71;100881.63;5081541;28;20274;-63
2024/02/16 11:00:54;;;;;;;17.50;8.97;;;;;;;10.03;59.43;100882.50;5089931;28;20585;-64
2024/02/16 11:03:25;;;;;;;13.40;8.47;;;;;;;10.08;59.14;100883.38;5087233;28;20279;-67
2024/02/16 11:05:54;;;;;;;12.30;8.87;;;;;;;10.12;59.47;100879.94;5093071;28;20758;-64
2024/02/16 11:08:27;;;;;;;11.40;8.53;;;;;;;10.15;59.37;100873.97;5090729;28;20208;-62
2024/02/16 11:11:01;;;;;;;14.20;8.37;;;;;;;10.22;59.50;100877.41;5094387;28;20614;-65
2024/02/16 11:13:33;;;;;;;13.57;8.73;;;;;;;10.27;59.41;100874.06;5088416;28;20688;-63
2024/02/16 11:16:02;;;;;;;12.80;8.83;;;;;;;10.31;59.30;100870.63;5087808;28;20196;-61
2024/02/16 11:18:32;;;;;;;14.03;8.80;;;;;;;10.36;59.42;100868.91;5091734;28;20207;-61
2024/02/16 11:21:07;;;;;;;12.70;8.40;;;;;;;10.43;59.55;100858.63;5098998;28;20201;-62
2024/02/16 11:23:37;;;;;;;12.67;8.47;;;;;;;10.46;59.29;100851.75;5091203;28;20200;-63
2024/02/16 11:26:08;;;;;;;13.43;8.50;;;;;;;10.50;59.31;100850.91;5090663;28;20208;-62
2024/02/16 11:28:36;;;;;;;13.47;8.37;;;;;;;10.55;59.14;100845.75;5091949;28;20203;-63
2024/02/16 11:31:07;;;;;;;15.00;8.73;;;;;;;10.60;59.21;100841.44;5089533;28;20245;-64
2024/02/16 11:33:35;;;;;;;12.63;8.67;;;;;;;10.65;59.00;100834.59;5091854;28;20211;-62